Time;durP1;ratioP1;P1;durP2;ratioP2;P2;SDS_P1;SDS_P2;PMS_P1;PMS_P2;Temp;Humidity;BMP_temperature;BMP_pressure;BME280_temperature;BME280_humidity;BME280_pressure;Samples;Min_cycle;Max_cycle;Signal;HPM_P1;HPM_P2
2021/07/22 00:00:10;;;;;;;7.53;6.63;;;25.30;96.70;;;;;;4916812;29;20388;-71
2021/07/22 00:02:38;;;;;;;7.68;6.40;;;25.30;96.70;;;;;;4914176;29;20086;-71
2021/07/22 00:05:08;;;;;;;7.00;6.32;;;25.20;96.70;;;;;;4914746;29;20498;-71
2021/07/22 00:07:38;;;;;;;6.88;6.13;;;25.20;96.70;;;;;;4909920;29;20054;-71
2021/07/22 00:10:07;;;;;;;9.15;6.60;;;25.20;96.70;;;;;;4923551;29;20042;-71
2021/07/22 00:12:35;;;;;;;6.18;5.57;;;25.20;96.70;;;;;;4911518;29;20052;-71
2021/07/22 00:15:05;;;;;;;7.40;6.22;;;25.00;96.70;;;;;;4916638;29;20050;-71
2021/07/22 00:17:33;;;;;;;7.53;6.57;;;25.00;96.70;;;;;;4909429;29;20058;-71
2021/07/22 00:20:02;;;;;;;8.30;6.32;;;25.10;96.70;;;;;;4914590;29;20048;-71
2021/07/22 00:22:30;;;;;;;6.75;5.75;;;25.20;96.70;;;;;;4910060;29;20095;-71
2021/07/22 00:25:00;;;;;;;7.13;6.38;;;25.20;96.70;;;;;;4914632;29;20047;-71
2021/07/22 00:27:29;;;;;;;6.75;5.90;;;25.10;96.70;;;;;;4916181;29;20043;-71
2021/07/22 00:29:58;;;;;;;7.47;6.47;;;24.90;96.70;;;;;;4911661;29;20182;-71
2021/07/22 00:32:29;;;;;;;7.43;6.72;;;25.00;96.70;;;;;;4910584;29;20051;-71
2021/07/22 00:34:59;;;;;;;8.50;6.80;;;25.00;96.70;;;;;;4912524;29;20047;-71
2021/07/22 00:37:29;;;;;;;7.60;6.63;;;25.00;96.70;;;;;;4939978;28;20506;-71
2021/07/22 00:39:59;;;;;;;8.73;7.63;;;25.00;96.70;;;;;;4920611;29;20064;-71
2021/07/22 00:42:57;;;;;;;6.72;5.75;;;25.00;96.70;;;;;;4916410;29;20040;-71
2021/07/22 00:45:27;;;;;;;6.80;6.05;;;25.00;96.70;;;;;;4910542;29;20060;-71
2021/07/22 00:47:58;;;;;;;8.10;7.07;;;25.10;96.70;;;;;;4922155;29;20473;-71
2021/07/22 00:50:27;;;;;;;8.23;6.47;;;25.00;96.70;;;;;;4906579;29;20056;-71
2021/07/22 00:53:46;;;;;;;7.40;6.65;;;24.90;96.70;;;;;;4908735;29;20044;-71
2021/07/22 00:56:16;;;;;;;7.15;6.45;;;25.00;96.70;;;;;;4940576;28;20541;-71
2021/07/22 00:59:03;;;;;;;7.50;5.47;;;25.00;96.70;;;;;;4913471;28;20398;-71
2021/07/22 01:01:33;;;;;;;6.22;5.57;;;24.90;96.70;;;;;;4920537;28;20054;-71
2021/07/22 01:04:01;;;;;;;9.77;6.13;;;24.80;96.70;;;;;;4911208;29;20054;-71
2021/07/22 01:06:30;;;;;;;7.60;5.57;;;24.70;96.70;;;;;;4924820;29;20083;-71
2021/07/22 01:09:00;;;;;;;5.20;4.70;;;24.60;96.70;;;;;;4906128;29;20043;-71
2021/07/22 01:11:35;;;;;;;5.90;5.15;;;24.50;96.70;;;;;;4911465;29;20061;-71
2021/07/22 01:14:04;;;;;;;6.68;5.28;;;24.60;96.70;;;;;;4908771;29;20072;-69
2021/07/22 01:16:35;;;;;;;6.53;5.38;;;24.60;96.70;;;;;;4912829;29;20466;-71
2021/07/22 01:19:08;;;;;;;5.90;5.10;;;24.60;96.70;;;;;;4894972;29;20060;-69
2021/07/22 01:21:40;;;;;;;6.38;4.80;;;24.60;96.70;;;;;;4909141;29;20318;-69
2021/07/22 01:24:09;;;;;;;6.80;5.30;;;24.60;96.70;;;;;;4912706;29;20529;-71
2021/07/22 01:26:59;;;;;;;6.72;5.07;;;24.60;96.70;;;;;;4928477;29;20043;-70
2021/07/22 01:29:55;;;;;;;7.32;5.32;;;24.60;96.70;;;;;;4909342;29;20266;-70
2021/07/22 01:32:24;;;;;;;9.30;5.53;;;24.50;96.70;;;;;;4908146;29;20379;-69
2021/07/22 01:34:53;;;;;;;5.20;4.60;;;24.30;96.70;;;;;;4914001;29;20047;-70
2021/07/22 01:37:26;;;;;;;5.75;5.07;;;24.40;96.70;;;;;;4911940;29;20511;-69
2021/07/22 01:40:21;;;;;;;7.28;5.20;;;24.30;96.70;;;;;;4903533;29;20194;-69
2021/07/22 01:42:51;;;;;;;7.72;5.10;;;24.20;96.70;;;;;;4894971;29;20455;-69
2021/07/22 01:45:38;;;;;;;6.60;5.32;;;24.30;96.70;;;;;;4916220;29;20123;-70
2021/07/22 01:48:06;;;;;;;8.70;5.72;;;24.30;96.70;;;;;;4890077;29;20537;-69
2021/07/22 01:50:35;;;;;;;6.18;5.10;;;24.30;96.70;;;;;;4891625;29;20425;-69
2021/07/22 01:53:05;;;;;;;6.07;5.30;;;24.20;96.70;;;;;;4894009;29;20112;-69
2021/07/22 01:55:36;;;;;;;7.65;5.70;;;24.20;96.70;;;;;;4919924;29;20059;-69
2021/07/22 01:58:07;;;;;;;7.63;5.20;;;24.10;96.70;;;;;;4883649;29;20045;-69
2021/07/22 02:00:41;;;;;;;6.22;5.43;;;24.10;96.70;;;;;;4892429;29;20573;-69
2021/07/22 02:03:11;;;;;;;6.55;5.32;;;24.30;96.70;;;;;;4919157;29;20060;-69
2021/07/22 02:05:56;;;;;;;6.38;5.13;;;24.30;96.70;;;;;;4891857;29;20416;-68
2021/07/22 02:08:30;;;;;;;7.18;5.35;;;24.20;96.70;;;;;;4888218;29;20044;-69
2021/07/22 02:11:02;;;;;;;6.50;5.30;;;24.30;96.70;;;;;;4893137;29;20518;-69
2021/07/22 02:13:32;;;;;;;6.88;5.93;;;24.20;96.70;;;;;;4886484;29;20135;-69
2021/07/22 02:16:07;;;;;;;7.97;5.15;;;24.20;96.70;;;;;;4906364;29;20079;-70
2021/07/22 02:18:37;;;;;;;8.25;5.43;;;24.00;96.70;;;;;;4883657;29;20467;-68
2021/07/22 02:21:11;;;;;;;5.32;4.82;;;24.00;96.70;;;;;;4882132;29;20048;-70
2021/07/22 02:23:49;;;;;;;7.38;5.65;;;24.00;96.70;;;;;;4884165;29;20052;-70
2021/07/22 02:26:42;;;;;;;5.85;5.10;;;24.10;96.70;;;;;;4896097;29;20064;-69
2021/07/22 02:29:13;;;;;;;5.93;5.32;;;24.00;96.70;;;;;;4885938;29;20053;-70
2021/07/22 02:31:43;;;;;;;5.78;4.80;;;24.00;96.70;;;;;;4919158;29;20503;-69
2021/07/22 02:34:16;;;;;;;6.97;5.28;;;24.10;96.70;;;;;;4900594;29;20131;-69
2021/07/22 02:36:46;;;;;;;7.78;5.28;;;24.00;96.70;;;;;;4888565;29;20040;-69
2021/07/22 02:39:39;;;;;;;8.65;5.55;;;24.00;96.70;;;;;;4909762;29;20052;-69
2021/07/22 02:42:23;;;;;;;8.00;4.80;;;23.90;96.70;;;;;;4936831;28;20054;-69
2021/07/22 02:45:15;;;;;;;5.45;4.93;;;23.80;96.70;;;;;;4927436;29;20048;-69
2021/07/22 02:47:50;;;;;;;5.80;5.25;;;23.80;96.70;;;;;;4926911;28;20088;-71
2021/07/22 02:50:20;;;;;;;5.05;4.40;;;23.80;96.70;;;;;;4908318;29;20044;-71
2021/07/22 02:52:54;;;;;;;6.47;4.88;;;23.80;96.70;;;;;;4941253;28;20446;-71
2021/07/22 02:55:27;;;;;;;5.53;5.00;;;23.70;96.70;;;;;;4915228;29;20040;-71
2021/07/22 02:58:05;;;;;;;8.00;4.93;;;23.70;96.70;;;;;;4910400;29;20044;-71
2021/07/22 03:00:43;;;;;;;5.45;4.78;;;23.70;96.70;;;;;;4913292;29;20067;-71
2021/07/22 03:03:15;;;;;;;6.55;5.30;;;23.70;96.70;;;;;;4948288;28;20068;-71
2021/07/22 03:05:44;;;;;;;6.72;5.80;;;23.70;96.70;;;;;;4922644;29;20063;-71
2021/07/22 03:08:12;;;;;;;8.45;6.78;;;23.60;96.70;;;;;;4910308;29;20357;-69
2021/07/22 03:10:43;;;;;;;9.93;6.85;;;23.80;96.70;;;;;;4911906;29;20090;-69
2021/07/22 03:13:12;;;;;;;11.55;8.63;;;23.80;96.70;;;;;;4911176;29;20067;-70
2021/07/22 03:15:41;;;;;;;10.00;6.97;;;23.90;96.70;;;;;;4927364;29;20114;-69
2021/07/22 03:18:29;;;;;;;10.50;7.55;;;23.80;96.70;;;;;;4914961;29;20508;-70
2021/07/22 03:21:00;;;;;;;15.25;10.43;;;23.80;96.70;;;;;;4910761;29;20108;-70
2021/07/22 03:23:29;;;;;;;15.65;9.52;;;23.70;96.70;;;;;;4943398;28;20525;-70
2021/07/22 03:25:59;;;;;;;17.10;11.35;;;23.70;96.70;;;;;;4917234;29;20094;-69
2021/07/22 03:28:38;;;;;;;23.52;14.95;;;23.70;96.70;;;;;;4943164;28;20056;-70
2021/07/22 03:31:34;;;;;;;22.88;14.32;;;23.80;96.70;;;;;;4916761;29;20104;-70
2021/07/22 03:34:11;;;;;;;18.20;13.07;;;23.70;96.70;;;;;;4943688;28;20163;-69
2021/07/22 03:36:51;;;;;;;15.98;11.85;;;23.80;96.70;;;;;;4916344;29;20039;-69
2021/07/22 03:39:21;;;;;;;15.65;10.13;;;23.80;96.70;;;;;;4912337;29;20067;-69
2021/07/22 03:42:01;;;;;;;11.90;9.95;;;23.80;96.70;;;;;;4911709;29;20153;-69
2021/07/22 03:44:42;;;;;;;21.17;11.52;;;23.70;96.70;;;;;;4941455;28;20048;-70
2021/07/22 03:47:17;;;;;;;23.88;11.43;;;23.60;96.70;;;;;;4913353;29;20052;-71
2021/07/22 03:49:51;;;;;;;15.55;10.52;;;23.60;96.70;;;;;;4909906;29;20044;-70
2021/07/22 03:52:27;;;;;;;;;;;23.50;96.70;;;;;;4940809;28;20072;-70
2021/07/22 03:54:58;;;;;;;15.93;10.13;;;23.50;96.70;;;;;;4927767;28;20021;-70
2021/07/22 03:57:30;;;;;;;16.02;10.00;;;23.50;96.70;;;;;;4917932;29;20067;-71
2021/07/22 04:00:01;;;;;;;13.55;9.35;;;23.50;96.70;;;;;;4912524;29;20481;-70
2021/07/22 04:02:42;;;;;;;19.38;11.05;;;23.40;96.70;;;;;;4909884;29;20110;-70
2021/07/22 04:05:14;;;;;;;16.95;11.93;;;23.40;96.70;;;;;;4911930;29;20498;-71
2021/07/22 04:07:44;;;;;;;19.67;12.35;;;23.40;96.70;;;;;;4938203;28;20376;-70
2021/07/22 04:10:33;;;;;;;15.68;11.70;;;23.40;96.70;;;;;;4926801;29;20855;-70
2021/07/22 04:13:33;;;;;;;21.02;12.98;;;23.50;96.70;;;;;;4942637;28;20056;-71
2021/07/22 04:16:23;;;;;;;17.65;12.52;;;23.40;96.70;;;;;;4903998;29;20052;-71
2021/07/22 04:19:22;;;;;;;15.68;11.70;;;23.40;96.70;;;;;;4910674;29;20048;-71
2021/07/22 04:22:13;;;;;;;16.90;12.85;;;23.50;96.70;;;;;;4902679;29;20059;-71
2021/07/22 04:25:18;;;;;;;20.83;14.38;;;23.50;96.70;;;;;;4928248;28;20055;-71
2021/07/22 04:27:55;;;;;;;20.30;13.35;;;23.50;96.70;;;;;;4950670;28;20047;-71
2021/07/22 04:30:33;;;;;;;17.47;13.20;;;23.40;96.70;;;;;;4913998;29;20048;-70
2021/07/22 04:33:15;;;;;;;20.15;12.77;;;23.40;96.70;;;;;;4944342;28;20302;-70
2021/07/22 04:35:56;;;;;;;22.13;13.95;;;23.30;96.70;;;;;;4894262;29;20418;-70
2021/07/22 04:38:38;;;;;;;23.73;14.20;;;23.30;96.70;;;;;;4911687;29;20040;-70
2021/07/22 04:41:46;;;;;;;23.20;14.95;;;23.30;96.70;;;;;;4942833;28;20448;-70
2021/07/22 04:44:33;;;;;;;33.05;20.10;;;23.30;96.70;;;;;;4949911;28;20053;-71
2021/07/22 04:47:18;;;;;;;31.65;21.40;;;23.30;96.70;;;;;;4914752;29;20071;-70
2021/07/22 04:50:05;;;;;;;46.60;29.38;;;23.40;96.70;;;;;;4914535;29;20043;-70
2021/07/22 04:52:54;;;;;;;42.63;26.73;;;23.50;96.70;;;;;;4907000;29;20060;-70
2021/07/22 04:55:32;;;;;;;37.28;24.33;;;23.60;96.70;;;;;;4928670;28;20092;-71
2021/07/22 04:58:03;;;;;;;38.47;25.92;;;23.60;96.70;;;;;;4925166;29;20048;-71
2021/07/22 05:00:38;;;;;;;40.83;28.02;;;23.60;96.70;;;;;;4922859;29;20416;-70
2021/07/22 05:03:10;;;;;;;36.03;26.35;;;23.60;96.70;;;;;;4913280;29;20047;-70
2021/07/22 05:05:40;;;;;;;34.30;24.77;;;23.70;96.70;;;;;;4910782;29;20052;-71
2021/07/22 05:08:40;;;;;;;37.25;23.90;;;23.80;96.70;;;;;;4907604;29;20127;-70
2021/07/22 05:11:36;;;;;;;33.35;23.15;;;23.70;96.70;;;;;;4910625;29;20603;-72
2021/07/22 05:14:24;;;;;;;33.90;21.00;;;23.70;96.70;;;;;;4909752;29;20116;-69
2021/07/22 05:17:07;;;;;;;32.58;20.83;;;23.80;96.70;;;;;;4932500;28;20043;-70
2021/07/22 05:20:00;;;;;;;37.80;27.60;;;23.90;96.70;;;;;;4927871;28;20051;-70
2021/07/22 05:22:52;;;;;;;35.05;24.25;;;24.00;96.70;;;;;;4914381;29;20521;-71
2021/07/22 05:25:39;;;;;;;34.45;22.00;;;24.00;96.70;;;;;;4909246;29;20089;-70
2021/07/22 05:28:28;;;;;;;31.35;19.45;;;24.00;96.70;;;;;;4921957;29;20063;-69
2021/07/22 05:31:14;;;;;;;29.42;18.38;;;24.00;96.70;;;;;;4922935;28;20395;-68
2021/07/22 05:34:00;;;;;;;29.75;16.98;;;24.00;96.70;;;;;;4915109;29;20127;-69
2021/07/22 05:36:48;;;;;;;29.92;16.98;;;24.10;96.70;;;;;;4908963;29;20107;-69
2021/07/22 05:39:23;;;;;;;29.45;17.20;;;24.10;96.70;;;;;;4914988;29;20040;-69
2021/07/22 05:41:52;;;;;;;28.83;16.75;;;24.10;96.70;;;;;;4919046;29;20229;-69
2021/07/22 05:44:20;;;;;;;28.60;17.50;;;24.20;96.70;;;;;;4916300;29;20039;-69
2021/07/22 05:46:48;;;;;;;29.88;18.38;;;24.10;96.70;;;;;;4910461;29;20513;-69
2021/07/22 05:49:16;;;;;;;29.27;18.23;;;24.20;96.70;;;;;;4912051;29;20071;-69
2021/07/22 05:51:45;;;;;;;32.17;18.60;;;24.10;96.70;;;;;;4947695;28;20092;-69
2021/07/22 05:54:14;;;;;;;29.35;16.88;;;24.20;96.70;;;;;;4895376;29;20044;-69
2021/07/22 05:56:44;;;;;;;31.08;18.48;;;24.30;96.70;;;;;;4927112;29;20063;-71
2021/07/22 05:59:12;;;;;;;30.85;19.52;;;24.30;96.70;;;;;;4912658;29;20040;-71
2021/07/22 06:01:40;;;;;;;28.98;17.42;;;24.30;96.70;;;;;;4915860;29;20139;-71
2021/07/22 06:04:09;;;;;;;33.38;17.85;;;24.30;96.70;;;;;;4918303;29;20496;-71
2021/07/22 06:06:39;;;;;;;32.70;17.27;;;24.40;96.70;;;;;;4921093;29;20588;-71
2021/07/22 06:09:07;;;;;;;29.85;17.33;;;24.40;96.70;;;;;;4915885;29;20467;-71
2021/07/22 06:11:37;;;;;;;27.88;15.35;;;24.40;96.70;;;;;;4917158;29;20072;-70
2021/07/22 06:14:05;;;;;;;26.48;14.48;;;24.40;96.70;;;;;;4915540;29;20143;-69
2021/07/22 06:16:33;;;;;;;33.80;17.73;;;24.50;96.70;;;;;;4913767;28;20160;-70
2021/07/22 06:19:02;;;;;;;24.55;13.60;;;24.40;96.70;;;;;;4920957;29;20044;-69
2021/07/22 06:21:30;;;;;;;25.15;15.05;;;24.30;96.70;;;;;;4931797;28;20043;-69
2021/07/22 06:23:58;;;;;;;22.60;13.55;;;24.30;96.70;;;;;;4932035;28;20078;-69
2021/07/22 06:26:26;;;;;;;18.52;12.65;;;24.30;96.70;;;;;;4948441;28;20052;-69
2021/07/22 06:28:56;;;;;;;20.00;12.88;;;24.30;96.70;;;;;;4914992;29;20036;-68
2021/07/22 06:31:24;;;;;;;19.35;13.55;;;24.30;96.70;;;;;;4930881;28;20052;-68
2021/07/22 06:33:52;;;;;;;22.35;12.70;;;24.30;96.70;;;;;;4905115;29;20126;-68
2021/07/22 06:36:21;;;;;;;21.63;13.63;;;24.20;96.70;;;;;;4917242;29;20049;-69
2021/07/22 06:38:49;;;;;;;28.13;14.57;;;24.20;96.70;;;;;;4910934;29;20578;-68
2021/07/22 06:41:20;;;;;;;23.48;14.30;;;24.20;96.70;;;;;;4920835;29;20392;-68
2021/07/22 06:43:49;;;;;;;23.90;15.32;;;24.20;96.70;;;;;;4943745;28;20062;-69
2021/07/22 06:46:18;;;;;;;22.58;15.20;;;24.10;96.70;;;;;;4924527;29;20519;-68
2021/07/22 06:48:49;;;;;;;23.38;14.88;;;24.20;96.70;;;;;;4914138;29;20131;-68
2021/07/22 06:51:17;;;;;;;25.90;16.67;;;24.20;96.70;;;;;;4905818;29;20041;-68
2021/07/22 06:53:45;;;;;;;21.20;13.68;;;24.30;96.70;;;;;;4942184;28;20050;-69
2021/07/22 06:56:14;;;;;;;21.13;14.02;;;24.40;96.70;;;;;;4923539;29;20087;-69
2021/07/22 06:58:42;;;;;;;19.80;13.70;;;24.50;96.70;;;;;;4932301;28;20055;-68
2021/07/22 07:01:10;;;;;;;20.98;15.23;;;24.60;96.70;;;;;;4939293;28;20055;-69
2021/07/22 07:03:40;;;;;;;24.33;16.25;;;24.60;96.70;;;;;;4912320;29;20426;-68
2021/07/22 07:06:08;;;;;;;24.52;15.30;;;24.50;96.70;;;;;;4909595;29;20044;-68
2021/07/22 07:08:37;;;;;;;22.88;16.27;;;24.40;96.70;;;;;;4920725;29;20039;-68
2021/07/22 07:11:07;;;;;;;23.23;16.27;;;24.50;96.70;;;;;;4911491;29;20047;-68
2021/07/22 07:13:35;;;;;;;21.10;14.85;;;24.60;96.70;;;;;;4925621;29;20154;-68
2021/07/22 07:16:05;;;;;;;20.27;16.08;;;24.70;96.70;;;;;;4912034;29;20514;-68
2021/07/22 07:18:33;;;;;;;16.77;14.68;;;24.80;96.70;;;;;;4912359;29;20067;-68
2021/07/22 07:21:04;;;;;;;18.83;14.57;;;25.00;96.70;;;;;;4910449;29;20134;-68
2021/07/22 07:23:33;;;;;;;20.00;14.48;;;25.10;96.70;;;;;;4918983;29;20223;-69
2021/07/22 07:26:02;;;;;;;18.33;14.98;;;25.20;96.70;;;;;;4907095;29;20126;-69
2021/07/22 07:28:30;;;;;;;19.33;14.95;;;25.20;96.70;;;;;;4911057;29;20140;-68
2021/07/22 07:30:58;;;;;;;19.88;14.80;;;25.20;96.70;;;;;;4912208;29;20044;-68
2021/07/22 07:33:29;;;;;;;16.95;14.45;;;25.10;96.70;;;;;;4916063;29;20111;-69
2021/07/22 07:35:57;;;;;;;17.13;14.00;;;25.20;96.70;;;;;;4905111;29;20241;-68
2021/07/22 07:38:27;;;;;;;17.27;13.70;;;25.30;96.70;;;;;;4914054;29;20515;-69
2021/07/22 07:40:56;;;;;;;17.58;13.95;;;25.30;96.70;;;;;;4910176;29;20063;-68
2021/07/22 07:43:24;;;;;;;15.85;13.65;;;25.30;96.70;;;;;;4912861;28;20084;-68
2021/07/22 07:45:53;;;;;;;17.05;14.10;;;25.40;96.70;;;;;;4903667;28;20148;-68
2021/07/22 07:48:22;;;;;;;21.48;14.18;;;25.30;96.70;;;;;;4930006;29;20123;-70
2021/07/22 07:50:50;;;;;;;21.42;14.50;;;25.40;96.70;;;;;;4916746;29;20055;-68
2021/07/22 07:53:19;;;;;;;17.00;13.18;;;25.40;96.70;;;;;;4892729;29;20052;-68
2021/07/22 07:55:49;;;;;;;15.27;12.27;;;25.40;96.70;;;;;;4908710;29;20406;-68
2021/07/22 07:58:17;;;;;;;16.00;11.65;;;25.60;96.70;;;;;;4912911;29;20378;-69
2021/07/22 08:00:47;;;;;;;14.40;11.52;;;25.70;96.70;;;;;;4925520;29;20509;-68
2021/07/22 08:03:17;;;;;;;18.58;11.43;;;25.60;96.70;;;;;;4910972;29;20044;-68
2021/07/22 08:05:46;;;;;;;14.13;10.82;;;25.60;96.70;;;;;;4917761;29;20498;-68
2021/07/22 08:08:15;;;;;;;15.05;11.25;;;25.60;96.70;;;;;;4906667;29;20043;-69
2021/07/22 08:10:43;;;;;;;14.20;10.63;;;25.70;96.70;;;;;;4911615;29;20052;-68
2021/07/22 08:13:13;;;;;;;14.95;10.75;;;25.80;96.70;;;;;;4912829;29;20083;-68
2021/07/22 08:15:43;;;;;;;11.88;10.13;;;25.90;96.70;;;;;;4915606;29;20143;-68
2021/07/22 08:18:15;;;;;;;14.13;11.00;;;26.00;96.70;;;;;;4910163;29;20127;-68
2021/07/22 08:20:43;;;;;;;13.32;10.75;;;26.20;96.70;;;;;;4911897;29;20556;-68
2021/07/22 08:23:13;;;;;;;11.25;9.23;;;26.20;96.70;;;;;;4940405;28;20047;-68
2021/07/22 08:25:41;;;;;;;9.98;8.32;;;26.30;96.70;;;;;;4925003;29;20071;-68
2021/07/22 08:28:12;;;;;;;12.68;8.75;;;26.40;96.70;;;;;;4915094;29;20509;-68
2021/07/22 08:30:41;;;;;;;13.27;8.80;;;26.40;96.70;;;;;;4925687;29;20062;-68
2021/07/22 08:33:09;;;;;;;10.38;8.93;;;26.40;96.70;;;;;;4924953;29;20068;-68
2021/07/22 08:35:37;;;;;;;18.08;9.48;;;26.40;96.70;;;;;;4911908;29;20556;-67
2021/07/22 08:38:06;;;;;;;16.80;9.68;;;26.40;96.70;;;;;;4907347;29;20048;-68
2021/07/22 08:40:34;;;;;;;12.55;9.63;;;26.50;96.70;;;;;;4914887;29;20502;-68
2021/07/22 08:43:03;;;;;;;12.23;9.93;;;26.70;96.70;;;;;;4908622;29;20048;-68
2021/07/22 08:45:34;;;;;;;13.70;9.60;;;26.70;96.70;;;;;;4921968;28;20062;-68
2021/07/22 08:48:03;;;;;;;12.38;9.02;;;26.80;96.70;;;;;;4911973;29;20040;-68
2021/07/22 08:50:31;;;;;;;8.57;7.32;;;26.80;96.70;;;;;;4915271;29;20613;-68
2021/07/22 08:52:59;;;;;;;8.80;7.25;;;26.90;96.70;;;;;;4913907;29;20047;-69
2021/07/22 08:55:28;;;;;;;7.75;6.57;;;27.10;96.70;;;;;;4911616;29;20055;-69
2021/07/22 08:57:57;;;;;;;9.52;6.55;;;27.20;96.70;;;;;;4912726;29;20048;-68
2021/07/22 09:00:29;;;;;;;8.07;6.38;;;27.30;96.70;;;;;;4912887;29;20075;-68
2021/07/22 09:03:00;;;;;;;9.65;6.25;;;27.40;96.70;;;;;;4924911;28;20044;-69
2021/07/22 09:05:28;;;;;;;8.50;6.25;;;27.40;96.70;;;;;;4931077;28;20044;-68
2021/07/22 09:07:58;;;;;;;8.50;5.88;;;27.50;96.70;;;;;;4898241;29;20580;-69
2021/07/22 09:10:26;;;;;;;6.90;6.20;;;27.60;96.70;;;;;;4907547;29;20048;-68
2021/07/22 09:12:55;;;;;;;8.65;5.50;;;27.70;96.70;;;;;;4906991;29;20042;-69
2021/07/22 09:15:25;;;;;;;6.82;5.78;;;27.70;96.70;;;;;;4909532;28;20052;-68
2021/07/22 09:18:23;;;;;;;8.38;5.35;;;27.80;96.70;;;;;;4913595;29;20051;-69
2021/07/22 09:20:53;;;;;;;6.88;5.40;;;27.90;96.70;;;;;;4897562;29;20096;-68
2021/07/22 09:23:23;;;;;;;7.22;4.97;;;28.00;96.70;;;;;;4947141;28;20130;-68
2021/07/22 09:25:52;;;;;;;7.30;4.97;;;28.00;96.70;;;;;;4898212;29;20044;-69
2021/07/22 09:28:23;;;;;;;5.72;4.50;;;28.00;96.70;;;;;;4910581;29;20040;-68
2021/07/22 09:30:55;;;;;;;7.03;4.65;;;28.00;96.70;;;;;;4908179;29;20151;-69
2021/07/22 09:33:38;;;;;;;11.25;5.38;;;28.10;96.70;;;;;;4914424;29;20047;-68
2021/07/22 09:36:28;;;;;;;6.55;5.30;;;28.10;96.70;;;;;;4923333;29;20043;-68
2021/07/22 09:39:17;;;;;;;6.15;5.22;;;28.10;96.70;;;;;;4912356;29;20040;-69
2021/07/22 09:41:54;;;;;;;8.13;5.80;;;28.20;96.70;;;;;;4912131;29;20402;-69
2021/07/22 09:44:31;;;;;;;6.35;5.55;;;28.40;96.70;;;;;;4924556;29;21017;-69
2021/07/22 09:47:00;;;;;;;8.50;5.38;;;28.40;96.70;;;;;;4911200;29;20083;-68
2021/07/22 09:49:36;;;;;;;7.95;6.32;;;28.40;96.70;;;;;;4909359;29;20049;-69
2021/07/22 09:52:10;;;;;;;9.43;5.65;;;28.50;96.70;;;;;;4912035;29;20048;-68
2021/07/22 09:54:39;;;;;;;6.95;5.47;;;28.60;96.70;;;;;;4914148;29;20122;-68
2021/07/22 09:57:15;;;;;;;9.50;6.43;;;28.70;96.70;;;;;;4913548;29;20557;-69
2021/07/22 09:59:46;;;;;;;6.50;5.78;;;28.60;96.70;;;;;;4905837;29;20139;-69
2021/07/22 10:02:18;;;;;;;9.55;6.50;;;28.80;96.70;;;;;;4911007;29;20052;-68
2021/07/22 10:04:52;;;;;;;10.98;6.68;;;28.80;96.70;;;;;;4942957;28;20048;-68
2021/07/22 10:07:21;;;;;;;8.68;6.47;;;29.00;96.70;;;;;;4925827;29;20090;-69
2021/07/22 10:09:51;;;;;;;9.07;6.57;;;29.10;96.70;;;;;;4925406;29;20431;-68
2021/07/22 10:12:21;;;;;;;10.45;6.55;;;29.20;96.70;;;;;;4912656;29;20048;-68
2021/07/22 10:14:54;;;;;;;8.27;7.05;;;29.20;96.70;;;;;;4910010;29;20044;-69
2021/07/22 10:17:26;;;;;;;9.57;6.10;;;29.30;96.70;;;;;;4910468;29;20048;-68
2021/07/22 10:19:58;;;;;;;6.63;6.00;;;29.50;96.70;;;;;;4933837;29;20047;-68
2021/07/22 10:22:27;;;;;;;8.38;6.60;;;29.60;96.70;;;;;;4913089;29;20056;-68
2021/07/22 10:24:55;;;;;;;8.05;6.85;;;29.70;96.70;;;;;;4911164;29;20127;-68
2021/07/22 10:27:25;;;;;;;7.00;6.13;;;29.70;96.70;;;;;;4913954;29;20048;-68
2021/07/22 10:29:53;;;;;;;6.40;5.65;;;29.80;96.70;;;;;;4894089;29;20048;-69
2021/07/22 10:32:23;;;;;;;6.95;5.40;;;29.80;96.70;;;;;;4928578;29;20040;-68
2021/07/22 10:34:54;;;;;;;7.88;6.28;;;29.80;96.70;;;;;;4916534;29;20059;-68
2021/07/22 10:37:24;;;;;;;9.00;6.03;;;29.90;96.70;;;;;;4913107;29;20059;-68
2021/07/22 10:40:07;;;;;;;8.77;6.20;;;30.10;96.70;;;;;;4911794;29;20048;-69
2021/07/22 10:42:44;;;;;;;7.22;5.53;;;30.10;96.70;;;;;;4923362;28;20513;-68
2021/07/22 10:45:27;;;;;;;10.38;6.50;;;30.20;96.70;;;;;;4927920;29;20045;-69
2021/07/22 10:48:07;;;;;;;7.65;6.47;;;30.40;96.70;;;;;;4906279;29;20044;-68
2021/07/22 10:51:07;;;;;;;6.60;5.90;;;30.50;96.70;;;;;;4911503;29;20044;-68
2021/07/22 10:53:59;;;;;;;7.05;6.45;;;30.60;96.70;;;;;;4902008;29;20898;-69
2021/07/22 10:56:50;;;;;;;8.02;6.40;;;30.60;96.70;;;;;;4918785;29;20123;-69
2021/07/22 10:59:18;;;;;;;7.03;6.25;;;30.70;96.70;;;;;;4913419;29;20083;-69
2021/07/22 11:01:56;;;;;;;10.35;6.10;;;30.70;96.70;;;;;;4923997;29;20052;-68
2021/07/22 11:04:41;;;;;;;7.28;6.50;;;30.80;96.70;;;;;;4907432;29;20063;-69
2021/07/22 11:07:30;;;;;;;9.95;6.85;;;31.00;96.70;;;;;;4909242;29;20040;-68
2021/07/22 11:10:47;;;;;;;8.00;7.05;;;31.10;96.70;;;;;;4905694;29;20056;-68
2021/07/22 11:13:45;;;;;;;8.02;7.05;;;31.00;96.70;;;;;;4912736;29;20142;-68
2021/07/22 11:16:36;;;;;;;8.18;7.38;;;31.00;96.70;;;;;;4923180;29;20048;-68
2021/07/22 11:19:12;;;;;;;8.45;7.15;;;31.00;96.70;;;;;;4916109;29;20039;-68
2021/07/22 11:21:49;;;;;;;9.13;7.55;;;31.00;96.70;;;;;;4907447;29;20052;-69
2021/07/22 11:24:25;;;;;;;7.85;7.15;;;31.20;96.70;;;;;;4912115;29;20067;-70
2021/07/22 11:26:57;;;;;;;9.73;7.75;;;31.20;96.70;;;;;;4907272;29;20059;-71
2021/07/22 11:29:27;;;;;;;8.32;7.22;;;31.30;96.70;;;;;;4919796;28;20044;-69
2021/07/22 11:32:02;;;;;;;8.60;7.47;;;31.60;96.60;;;;;;4906332;29;20044;-69
2021/07/22 11:34:33;;;;;;;9.30;7.50;;;31.70;96.20;;;;;;4939630;28;20669;-70
2021/07/22 11:37:02;;;;;;;9.90;7.80;;;31.70;95.80;;;;;;4889410;29;20845;-69
2021/07/22 11:39:35;;;;;;;7.90;7.10;;;31.60;96.10;;;;;;4907833;29;20054;-70
2021/07/22 11:42:05;;;;;;;8.70;7.30;;;31.60;96.40;;;;;;4905790;29;20056;-69
2021/07/22 11:44:35;;;;;;;7.40;6.68;;;31.50;95.60;;;;;;4901973;29;20784;-69
2021/07/22 11:47:10;;;;;;;8.48;7.03;;;31.50;96.00;;;;;;4907169;29;20413;-69
2021/07/22 11:49:38;;;;;;;7.80;7.00;;;31.70;96.10;;;;;;4912061;29;20052;-69
2021/07/22 11:52:07;;;;;;;7.95;7.15;;;31.90;95.70;;;;;;4930892;29;20168;-70
2021/07/22 11:54:35;;;;;;;7.85;7.05;;;32.00;95.70;;;;;;4906757;29;20901;-70
2021/07/22 11:57:04;;;;;;;6.75;6.05;;;32.10;95.20;;;;;;4911685;29;20048;-70
2021/07/22 11:59:34;;;;;;;7.72;6.93;;;32.10;94.90;;;;;;4915777;29;20047;-69
2021/07/22 12:02:05;;;;;;;7.25;6.60;;;32.10;95.20;;;;;;4918801;29;20044;-70
2021/07/22 12:04:35;;;;;;;9.32;6.80;;;32.30;94.70;;;;;;4910245;29;20059;-71
2021/07/22 12:07:05;;;;;;;7.47;6.68;;;32.30;94.30;;;;;;4911990;29;20062;-71
2021/07/22 12:09:33;;;;;;;10.15;6.95;;;32.50;93.70;;;;;;4911388;29;20059;-71
2021/07/22 12:12:04;;;;;;;8.38;6.47;;;32.50;93.40;;;;;;4910319;29;20036;-70
2021/07/22 12:14:35;;;;;;;8.68;6.80;;;32.40;94.10;;;;;;4910656;29;20048;-71
2021/07/22 12:17:06;;;;;;;7.35;6.65;;;32.40;94.20;;;;;;4916971;29;20074;-70
2021/07/22 12:19:39;;;;;;;8.48;7.03;;;32.40;94.10;;;;;;4909810;29;20435;-70
2021/07/22 12:22:21;;;;;;;7.55;6.65;;;32.40;93.80;;;;;;4905822;29;20051;-69
2021/07/22 12:24:53;;;;;;;10.43;7.28;;;32.30;93.70;;;;;;4921088;29;20039;-70
2021/07/22 12:27:31;;;;;;;9.00;6.88;;;32.20;94.00;;;;;;4905013;29;20056;-70
2021/07/22 12:30:03;;;;;;;7.45;6.10;;;32.10;94.20;;;;;;4908724;29;20058;-70
2021/07/22 12:32:33;;;;;;;10.55;6.72;;;31.90;94.30;;;;;;4913338;29;20093;-69
2021/07/22 12:35:02;;;;;;;7.07;6.38;;;31.90;94.50;;;;;;4914466;29;20048;-69
2021/07/22 12:37:53;;;;;;;7.20;6.47;;;31.80;94.30;;;;;;4909119;29;20407;-70
2021/07/22 12:40:32;;;;;;;8.05;6.53;;;31.60;95.10;;;;;;4910949;29;20638;-69
2021/07/22 12:43:01;;;;;;;7.25;6.22;;;31.50;95.20;;;;;;4907927;29;20142;-69
2021/07/22 12:45:31;;;;;;;9.00;7.07;;;31.60;95.30;;;;;;4912056;29;20131;-70
2021/07/22 12:47:59;;;;;;;8.50;6.72;;;31.60;95.30;;;;;;4915883;29;20047;-70
2021/07/22 12:50:29;;;;;;;10.02;6.10;;;31.70;94.90;;;;;;4916629;29;20066;-70
2021/07/22 12:53:03;;;;;;;7.13;6.45;;;31.80;94.30;;;;;;4911191;29;20139;-69
2021/07/22 12:55:33;;;;;;;8.30;6.53;;;31.80;93.90;;;;;;4911067;29;20483;-70
2021/07/22 12:58:03;;;;;;;8.43;6.00;;;31.80;94.00;;;;;;4909532;29;20136;-69
2021/07/22 13:00:41;;;;;;;11.38;6.40;;;31.70;93.90;;;;;;4926742;28;20123;-69
2021/07/22 13:03:13;;;;;;;9.05;5.80;;;31.80;93.80;;;;;;4912466;29;20823;-70
2021/07/22 13:05:41;;;;;;;10.10;5.93;;;31.80;93.40;;;;;;4911803;29;20136;-70
2021/07/22 13:08:09;;;;;;;10.85;6.63;;;31.80;93.10;;;;;;4911135;29;20422;-70
2021/07/22 13:10:47;;;;;;;8.02;6.28;;;31.90;93.40;;;;;;4911286;29;20043;-69
2021/07/22 13:13:16;;;;;;;7.32;5.63;;;32.10;92.60;;;;;;4910450;29;20411;-70